sensor_id;sensor_type;location;lat;lon;timestamp;P1;durP1;ratioP1;P2;durP2;ratioP2
63688;SDS011;54895;40.928;14.480;2023-06-14T00:00:37;14.90;;;9.70;;
63688;SDS011;54895;40.928;14.480;2023-06-14T00:03:07;16.63;;;9.15;;
63688;SDS011;54895;40.928;14.480;2023-06-14T00:05:38;11.68;;;9.10;;
63688;SDS011;54895;40.928;14.480;2023-06-14T00:08:06;12.10;;;7.68;;
63688;SDS011;54895;40.928;14.480;2023-06-14T00:10:34;10.20;;;7.78;;
63688;SDS011;54895;40.928;14.480;2023-06-14T00:13:02;9.75;;;7.47;;
63688;SDS011;54895;40.928;14.480;2023-06-14T00:15:30;10.52;;;6.95;;
63688;SDS011;54895;40.928;14.480;2023-06-14T00:17:57;7.90;;;6.32;;
63688;SDS011;54895;40.928;14.480;2023-06-14T00:20:27;10.95;;;6.15;;
63688;SDS011;54895;40.928;14.480;2023-06-14T00:22:54;9.05;;;6.00;;
63688;SDS011;54895;40.928;14.480;2023-06-14T00:25:24;9.57;;;5.60;;
63688;SDS011;54895;40.928;14.480;2023-06-14T00:27:53;7.80;;;5.13;;
63688;SDS011;54895;40.928;14.480;2023-06-14T00:30:20;8.02;;;4.70;;
63688;SDS011;54895;40.928;14.480;2023-06-14T00:32:47;7.05;;;4.95;;
63688;SDS011;54895;40.928;14.480;2023-06-14T00:35:14;8.30;;;5.18;;
63688;SDS011;54895;40.928;14.480;2023-06-14T00:37:41;5.47;;;4.28;;
63688;SDS011;54895;40.928;14.480;2023-06-14T00:40:08;5.57;;;4.53;;
63688;SDS011;54895;40.928;14.480;2023-06-14T00:42:34;6.57;;;4.38;;
63688;SDS011;54895;40.928;14.480;2023-06-14T00:45:00;8.80;;;5.00;;
63688;SDS011;54895;40.928;14.480;2023-06-14T00:47:27;6.65;;;4.95;;
63688;SDS011;54895;40.928;14.480;2023-06-14T00:49:56;10.18;;;4.95;;
63688;SDS011;54895;40.928;14.480;2023-06-14T00:52:23;8.45;;;5.40;;
63688;SDS011;54895;40.928;14.480;2023-06-14T00:54:51;11.80;;;6.97;;
63688;SDS011;54895;40.928;14.480;2023-06-14T00:57:17;10.57;;;7.78;;
63688;SDS011;54895;40.928;14.480;2023-06-14T00:59:44;9.13;;;7.20;;
63688;SDS011;54895;40.928;14.480;2023-06-14T01:02:12;8.57;;;6.47;;
63688;SDS011;54895;40.928;14.480;2023-06-14T01:04:41;8.52;;;5.60;;
63688;SDS011;54895;40.928;14.480;2023-06-14T01:07:12;10.10;;;5.05;;
63688;SDS011;54895;40.928;14.480;2023-06-14T01:15:16;8.23;;;4.43;;
63688;SDS011;54895;40.928;14.480;2023-06-14T01:17:44;9.30;;;5.25;;
63688;SDS011;54895;40.928;14.480;2023-06-14T01:20:11;7.75;;;6.20;;
63688;SDS011;54895;40.928;14.480;2023-06-14T01:23:14;11.02;;;7.15;;
63688;SDS011;54895;40.928;14.480;2023-06-14T01:25:33;11.27;;;7.00;;
63688;SDS011;54895;40.928;14.480;2023-06-14T01:28:02;9.40;;;6.70;;
63688;SDS011;54895;40.928;14.480;2023-06-14T01:30:36;13.65;;;7.55;;
63688;SDS011;54895;40.928;14.480;2023-06-14T01:33:03;13.98;;;7.30;;
63688;SDS011;54895;40.928;14.480;2023-06-14T01:35:31;15.90;;;8.38;;
63688;SDS011;54895;40.928;14.480;2023-06-14T01:37:57;13.70;;;8.85;;
63688;SDS011;54895;40.928;14.480;2023-06-14T01:40:25;15.48;;;10.18;;
63688;SDS011;54895;40.928;14.480;2023-06-14T01:42:52;19.02;;;9.80;;
63688;SDS011;54895;40.928;14.480;2023-06-14T01:45:18;13.70;;;8.18;;
63688;SDS011;54895;40.928;14.480;2023-06-14T01:47:46;14.68;;;9.52;;
63688;SDS011;54895;40.928;14.480;2023-06-14T01:50:15;12.52;;;9.70;;
63688;SDS011;54895;40.928;14.480;2023-06-14T01:52:42;17.45;;;9.70;;
63688;SDS011;54895;40.928;14.480;2023-06-14T01:55:09;16.20;;;9.30;;
63688;SDS011;54895;40.928;14.480;2023-06-14T01:57:38;15.10;;;9.85;;
63688;SDS011;54895;40.928;14.480;2023-06-14T02:00:04;14.63;;;9.82;;
63688;SDS011;54895;40.928;14.480;2023-06-14T02:02:38;14.93;;;9.45;;
63688;SDS011;54895;40.928;14.480;2023-06-14T02:05:05;14.23;;;8.90;;
63688;SDS011;54895;40.928;14.480;2023-06-14T02:07:32;15.00;;;8.93;;
63688;SDS011;54895;40.928;14.480;2023-06-14T02:09:59;14.52;;;10.32;;
63688;SDS011;54895;40.928;14.480;2023-06-14T02:12:25;13.40;;;9.30;;
63688;SDS011;54895;40.928;14.480;2023-06-14T02:14:51;14.52;;;9.73;;
63688;SDS011;54895;40.928;14.480;2023-06-14T02:17:18;14.18;;;9.80;;
63688;SDS011;54895;40.928;14.480;2023-06-14T02:19:44;15.75;;;10.40;;
63688;SDS011;54895;40.928;14.480;2023-06-14T02:22:10;14.23;;;10.27;;
63688;SDS011;54895;40.928;14.480;2023-06-14T02:24:37;14.43;;;9.32;;
63688;SDS011;54895;40.928;14.480;2023-06-14T02:27:07;13.20;;;8.43;;
63688;SDS011;54895;40.928;14.480;2023-06-14T02:29:36;10.27;;;8.38;;
63688;SDS011;54895;40.928;14.480;2023-06-14T02:32:04;12.88;;;9.20;;
63688;SDS011;54895;40.928;14.480;2023-06-14T02:34:31;12.82;;;9.30;;
63688;SDS011;54895;40.928;14.480;2023-06-14T02:36:57;15.27;;;10.10;;
63688;SDS011;54895;40.928;14.480;2023-06-14T02:39:23;18.77;;;8.43;;
63688;SDS011;54895;40.928;14.480;2023-06-14T02:41:49;15.40;;;8.85;;
63688;SDS011;54895;40.928;14.480;2023-06-14T02:44:19;15.68;;;9.55;;
63688;SDS011;54895;40.928;14.480;2023-06-14T02:46:45;16.38;;;9.52;;
63688;SDS011;54895;40.928;14.480;2023-06-14T02:49:12;11.70;;;8.95;;
63688;SDS011;54895;40.928;14.480;2023-06-14T02:51:38;12.65;;;8.10;;
63688;SDS011;54895;40.928;14.480;2023-06-14T02:54:04;11.23;;;8.13;;
63688;SDS011;54895;40.928;14.480;2023-06-14T02:56:31;10.10;;;7.53;;
63688;SDS011;54895;40.928;14.480;2023-06-14T02:58:57;10.38;;;8.10;;
63688;SDS011;54895;40.928;14.480;2023-06-14T03:01:25;10.75;;;8.02;;
63688;SDS011;54895;40.928;14.480;2023-06-14T03:04:01;10.05;;;8.02;;
63688;SDS011;54895;40.928;14.480;2023-06-14T03:06:30;9.90;;;8.27;;
63688;SDS011;54895;40.928;14.480;2023-06-14T03:08:58;11.18;;;8.20;;
63688;SDS011;54895;40.928;14.480;2023-06-14T03:11:26;9.55;;;8.05;;
63688;SDS011;54895;40.928;14.480;2023-06-14T03:13:53;11.65;;;7.68;;
63688;SDS011;54895;40.928;14.480;2023-06-14T03:16:25;12.13;;;8.10;;
63688;SDS011;54895;40.928;14.480;2023-06-14T03:18:55;9.38;;;7.75;;
63688;SDS011;54895;40.928;14.480;2023-06-14T03:21:25;10.65;;;8.02;;
63688;SDS011;54895;40.928;14.480;2023-06-14T03:23:56;9.35;;;7.78;;
63688;SDS011;54895;40.928;14.480;2023-06-14T03:26:22;9.73;;;8.43;;
63688;SDS011;54895;40.928;14.480;2023-06-14T03:28:51;10.73;;;8.57;;
63688;SDS011;54895;40.928;14.480;2023-06-14T03:31:19;9.85;;;8.02;;
63688;SDS011;54895;40.928;14.480;2023-06-14T03:33:46;11.25;;;8.70;;
63688;SDS011;54895;40.928;14.480;2023-06-14T03:36:12;13.93;;;10.00;;
63688;SDS011;54895;40.928;14.480;2023-06-14T03:38:40;11.60;;;9.10;;
63688;SDS011;54895;40.928;14.480;2023-06-14T03:41:06;12.35;;;9.65;;
63688;SDS011;54895;40.928;14.480;2023-06-14T03:43:32;13.48;;;10.07;;
63688;SDS011;54895;40.928;14.480;2023-06-14T03:46:00;15.30;;;10.25;;
63688;SDS011;54895;40.928;14.480;2023-06-14T03:48:29;15.40;;;10.80;;
63688;SDS011;54895;40.928;14.480;2023-06-14T03:50:56;16.40;;;11.60;;
63688;SDS011;54895;40.928;14.480;2023-06-14T03:53:22;15.30;;;11.52;;
63688;SDS011;54895;40.928;14.480;2023-06-14T03:55:54;14.88;;;11.32;;
63688;SDS011;54895;40.928;14.480;2023-06-14T03:58:23;11.85;;;9.82;;
63688;SDS011;54895;40.928;14.480;2023-06-14T04:00:50;13.15;;;10.32;;
63688;SDS011;54895;40.928;14.480;2023-06-14T04:03:16;16.13;;;11.32;;
63688;SDS011;54895;40.928;14.480;2023-06-14T04:05:42;17.25;;;11.05;;
63688;SDS011;54895;40.928;14.480;2023-06-14T04:08:10;11.18;;;8.52;;
63688;SDS011;54895;40.928;14.480;2023-06-14T04:10:36;16.23;;;10.00;;
63688;SDS011;54895;40.928;14.480;2023-06-14T04:13:03;14.30;;;9.93;;
63688;SDS011;54895;40.928;14.480;2023-06-14T04:15:31;11.93;;;9.35;;
63688;SDS011;54895;40.928;14.480;2023-06-14T04:17:59;13.40;;;9.50;;
63688;SDS011;54895;40.928;14.480;2023-06-14T04:20:26;9.13;;;7.70;;
63688;SDS011;54895;40.928;14.480;2023-06-14T04:22:52;10.90;;;8.45;;
63688;SDS011;54895;40.928;14.480;2023-06-14T04:25:19;9.07;;;6.22;;
63688;SDS011;54895;40.928;14.480;2023-06-14T04:27:47;8.60;;;7.18;;
63688;SDS011;54895;40.928;14.480;2023-06-14T04:30:13;10.75;;;7.10;;
63688;SDS011;54895;40.928;14.480;2023-06-14T04:32:46;8.63;;;7.03;;
63688;SDS011;54895;40.928;14.480;2023-06-14T04:35:13;8.32;;;6.70;;
63688;SDS011;54895;40.928;14.480;2023-06-14T04:37:42;10.63;;;7.93;;
63688;SDS011;54895;40.928;14.480;2023-06-14T04:40:10;11.77;;;8.18;;
63688;SDS011;54895;40.928;14.480;2023-06-14T04:42:40;10.05;;;8.02;;
63688;SDS011;54895;40.928;14.480;2023-06-14T04:45:11;8.90;;;6.60;;
63688;SDS011;54895;40.928;14.480;2023-06-14T04:47:39;9.48;;;7.50;;
63688;SDS011;54895;40.928;14.480;2023-06-14T04:50:06;7.78;;;6.85;;
63688;SDS011;54895;40.928;14.480;2023-06-14T04:52:34;8.63;;;7.20;;
63688;SDS011;54895;40.928;14.480;2023-06-14T04:55:01;8.95;;;7.13;;
63688;SDS011;54895;40.928;14.480;2023-06-14T04:57:27;8.30;;;6.82;;
63688;SDS011;54895;40.928;14.480;2023-06-14T04:59:57;10.18;;;6.93;;
63688;SDS011;54895;40.928;14.480;2023-06-14T05:02:28;7.63;;;6.03;;
63688;SDS011;54895;40.928;14.480;2023-06-14T05:04:56;8.40;;;6.30;;
63688;SDS011;54895;40.928;14.480;2023-06-14T05:07:23;8.20;;;6.30;;
63688;SDS011;54895;40.928;14.480;2023-06-14T05:09:51;8.93;;;6.30;;
63688;SDS011;54895;40.928;14.480;2023-06-14T05:12:17;8.50;;;6.20;;
63688;SDS011;54895;40.928;14.480;2023-06-14T05:15:24;10.23;;;5.93;;
63688;SDS011;54895;40.928;14.480;2023-06-14T05:17:51;6.93;;;5.53;;
63688;SDS011;54895;40.928;14.480;2023-06-14T05:20:24;8.35;;;6.43;;
63688;SDS011;54895;40.928;14.480;2023-06-14T05:22:52;10.20;;;7.05;;
63688;SDS011;54895;40.928;14.480;2023-06-14T05:25:20;10.27;;;6.55;;
63688;SDS011;54895;40.928;14.480;2023-06-14T05:27:47;10.38;;;6.72;;
63688;SDS011;54895;40.928;14.480;2023-06-14T05:30:13;9.00;;;5.90;;
63688;SDS011;54895;40.928;14.480;2023-06-14T05:32:41;7.00;;;5.57;;
63688;SDS011;54895;40.928;14.480;2023-06-14T05:35:07;9.35;;;5.95;;
63688;SDS011;54895;40.928;14.480;2023-06-14T05:37:34;7.75;;;5.50;;
63688;SDS011;54895;40.928;14.480;2023-06-14T05:40:00;6.63;;;5.15;;
63688;SDS011;54895;40.928;14.480;2023-06-14T05:42:26;7.30;;;4.50;;
63688;SDS011;54895;40.928;14.480;2023-06-14T05:44:53;5.75;;;4.53;;
63688;SDS011;54895;40.928;14.480;2023-06-14T05:47:19;9.07;;;4.90;;
63688;SDS011;54895;40.928;14.480;2023-06-14T05:49:45;7.65;;;4.60;;
63688;SDS011;54895;40.928;14.480;2023-06-14T05:52:12;10.32;;;4.20;;
63688;SDS011;54895;40.928;14.480;2023-06-14T05:54:38;6.78;;;4.90;;
63688;SDS011;54895;40.928;14.480;2023-06-14T05:57:05;6.13;;;5.10;;
63688;SDS011;54895;40.928;14.480;2023-06-14T05:59:32;8.45;;;5.72;;
63688;SDS011;54895;40.928;14.480;2023-06-14T06:01:58;10.13;;;6.60;;
63688;SDS011;54895;40.928;14.480;2023-06-14T06:04:24;9.40;;;6.53;;
63688;SDS011;54895;40.928;14.480;2023-06-14T06:06:51;7.93;;;6.00;;
63688;SDS011;54895;40.928;14.480;2023-06-14T06:09:17;7.78;;;6.38;;
63688;SDS011;54895;40.928;14.480;2023-06-14T06:11:44;9.40;;;4.97;;
63688;SDS011;54895;40.928;14.480;2023-06-14T06:17:06;7.13;;;4.72;;
63688;SDS011;54895;40.928;14.480;2023-06-14T06:19:32;6.97;;;4.95;;
63688;SDS011;54895;40.928;14.480;2023-06-14T06:21:58;6.93;;;4.82;;
63688;SDS011;54895;40.928;14.480;2023-06-14T06:24:24;6.18;;;4.60;;
63688;SDS011;54895;40.928;14.480;2023-06-14T06:26:52;5.47;;;4.40;;
63688;SDS011;54895;40.928;14.480;2023-06-14T06:29:19;5.70;;;3.25;;
63688;SDS011;54895;40.928;14.480;2023-06-14T06:31:45;5.20;;;3.55;;
63688;SDS011;54895;40.928;14.480;2023-06-14T06:34:12;8.40;;;4.32;;
63688;SDS011;54895;40.928;14.480;2023-06-14T06:36:38;5.43;;;4.03;;
63688;SDS011;54895;40.928;14.480;2023-06-14T06:39:04;6.45;;;3.20;;
63688;SDS011;54895;40.928;14.480;2023-06-14T06:44:05;8.73;;;3.67;;
63688;SDS011;54895;40.928;14.480;2023-06-14T06:46:33;2.95;;;2.42;;
63688;SDS011;54895;40.928;14.480;2023-06-14T06:49:00;5.25;;;2.83;;
63688;SDS011;54895;40.928;14.480;2023-06-14T06:51:27;5.35;;;2.78;;
63688;SDS011;54895;40.928;14.480;2023-06-14T06:53:54;2.95;;;2.58;;
63688;SDS011;54895;40.928;14.480;2023-06-14T06:56:21;3.05;;;2.45;;
63688;SDS011;54895;40.928;14.480;2023-06-14T06:58:50;3.47;;;2.50;;
63688;SDS011;54895;40.928;14.480;2023-06-14T07:01:17;4.07;;;2.50;;
63688;SDS011;54895;40.928;14.480;2023-06-14T07:03:45;5.65;;;2.60;;
63688;SDS011;54895;40.928;14.480;2023-06-14T07:06:11;8.15;;;2.70;;
63688;SDS011;54895;40.928;14.480;2023-06-14T07:08:38;3.85;;;2.60;;
63688;SDS011;54895;40.928;14.480;2023-06-14T07:11:06;5.88;;;2.40;;
63688;SDS011;54895;40.928;14.480;2023-06-14T07:16:57;4.50;;;2.90;;
63688;SDS011;54895;40.928;14.480;2023-06-14T07:19:24;5.10;;;2.65;;
63688;SDS011;54895;40.928;14.480;2023-06-14T07:21:51;6.18;;;2.80;;
63688;SDS011;54895;40.928;14.480;2023-06-14T07:24:19;9.68;;;2.55;;
63688;SDS011;54895;40.928;14.480;2023-06-14T07:26:47;5.85;;;3.05;;
63688;SDS011;54895;40.928;14.480;2023-06-14T07:29:14;6.22;;;2.45;;
63688;SDS011;54895;40.928;14.480;2023-06-14T07:31:42;4.47;;;2.50;;
63688;SDS011;54895;40.928;14.480;2023-06-14T07:34:09;3.30;;;2.25;;
63688;SDS011;54895;40.928;14.480;2023-06-14T07:36:35;3.70;;;2.28;;
63688;SDS011;54895;40.928;14.480;2023-06-14T07:39:02;4.78;;;2.40;;
63688;SDS011;54895;40.928;14.480;2023-06-14T07:41:31;7.10;;;2.30;;
63688;SDS011;54895;40.928;14.480;2023-06-14T07:43:59;4.65;;;2.13;;
63688;SDS011;54895;40.928;14.480;2023-06-14T07:46:27;3.38;;;1.88;;
63688;SDS011;54895;40.928;14.480;2023-06-14T07:48:53;3.28;;;2.10;;
63688;SDS011;54895;40.928;14.480;2023-06-14T07:51:19;4.65;;;2.22;;
63688;SDS011;54895;40.928;14.480;2023-06-14T07:53:47;2.65;;;2.40;;
63688;SDS011;54895;40.928;14.480;2023-06-14T07:56:14;3.10;;;2.10;;
63688;SDS011;54895;40.928;14.480;2023-06-14T07:58:40;3.10;;;2.17;;
63688;SDS011;54895;40.928;14.480;2023-06-14T08:01:07;4.10;;;2.00;;
63688;SDS011;54895;40.928;14.480;2023-06-14T08:03:33;3.67;;;2.30;;
63688;SDS011;54895;40.928;14.480;2023-06-14T08:06:00;3.33;;;2.15;;
63688;SDS011;54895;40.928;14.480;2023-06-14T08:08:26;3.00;;;1.98;;
63688;SDS011;54895;40.928;14.480;2023-06-14T08:10:54;2.25;;;1.77;;
63688;SDS011;54895;40.928;14.480;2023-06-14T08:17:16;2.65;;;1.90;;
63688;SDS011;54895;40.928;14.480;2023-06-14T08:19:42;4.85;;;2.33;;
63688;SDS011;54895;40.928;14.480;2023-06-14T08:22:09;2.80;;;2.10;;
63688;SDS011;54895;40.928;14.480;2023-06-14T08:24:37;2.38;;;2.10;;
63688;SDS011;54895;40.928;14.480;2023-06-14T08:27:03;3.67;;;2.15;;
63688;SDS011;54895;40.928;14.480;2023-06-14T08:29:30;4.70;;;2.15;;
63688;SDS011;54895;40.928;14.480;2023-06-14T08:31:56;2.85;;;2.13;;
63688;SDS011;54895;40.928;14.480;2023-06-14T08:34:23;2.70;;;2.03;;
63688;SDS011;54895;40.928;14.480;2023-06-14T08:36:52;4.10;;;2.47;;
63688;SDS011;54895;40.928;14.480;2023-06-14T08:39:18;3.15;;;1.92;;
63688;SDS011;54895;40.928;14.480;2023-06-14T08:41:48;3.40;;;2.38;;
63688;SDS011;54895;40.928;14.480;2023-06-14T08:44:15;3.78;;;1.92;;
63688;SDS011;54895;40.928;14.480;2023-06-14T08:46:42;2.60;;;2.13;;
63688;SDS011;54895;40.928;14.480;2023-06-14T08:49:12;3.10;;;2.55;;
63688;SDS011;54895;40.928;14.480;2023-06-14T08:51:42;2.90;;;2.00;;
63688;SDS011;54895;40.928;14.480;2023-06-14T08:54:10;2.92;;;2.20;;
63688;SDS011;54895;40.928;14.480;2023-06-14T08:56:37;3.20;;;2.30;;
63688;SDS011;54895;40.928;14.480;2023-06-14T08:59:04;5.82;;;3.00;;
63688;SDS011;54895;40.928;14.480;2023-06-14T09:01:36;2.85;;;2.40;;
63688;SDS011;54895;40.928;14.480;2023-06-14T09:04:03;2.88;;;2.22;;
63688;SDS011;54895;40.928;14.480;2023-06-14T09:06:31;3.05;;;1.95;;
63688;SDS011;54895;40.928;14.480;2023-06-14T09:08:58;4.65;;;2.45;;
63688;SDS011;54895;40.928;14.480;2023-06-14T09:11:25;2.65;;;2.40;;
63688;SDS011;54895;40.928;14.480;2023-06-14T09:17:15;4.70;;;2.50;;
63688;SDS011;54895;40.928;14.480;2023-06-14T09:19:41;3.40;;;2.75;;
63688;SDS011;54895;40.928;14.480;2023-06-14T09:22:08;4.03;;;2.92;;
63688;SDS011;54895;40.928;14.480;2023-06-14T09:24:37;4.40;;;2.60;;
63688;SDS011;54895;40.928;14.480;2023-06-14T09:27:04;4.00;;;2.67;;
63688;SDS011;54895;40.928;14.480;2023-06-14T09:29:32;5.25;;;2.95;;
63688;SDS011;54895;40.928;14.480;2023-06-14T09:31:58;4.22;;;3.67;;
63688;SDS011;54895;40.928;14.480;2023-06-14T09:34:25;4.00;;;2.97;;
63688;SDS011;54895;40.928;14.480;2023-06-14T09:36:52;7.63;;;3.10;;
63688;SDS011;54895;40.928;14.480;2023-06-14T09:39:19;5.28;;;3.20;;
63688;SDS011;54895;40.928;14.480;2023-06-14T09:41:46;7.32;;;3.30;;
63688;SDS011;54895;40.928;14.480;2023-06-14T09:44:12;4.85;;;2.80;;
63688;SDS011;54895;40.928;14.480;2023-06-14T09:46:39;5.72;;;3.05;;
63688;SDS011;54895;40.928;14.480;2023-06-14T09:49:05;6.93;;;3.28;;
63688;SDS011;54895;40.928;14.480;2023-06-14T09:51:33;4.13;;;2.80;;
63688;SDS011;54895;40.928;14.480;2023-06-14T09:54:03;5.72;;;3.15;;
63688;SDS011;54895;40.928;14.480;2023-06-14T09:56:31;4.32;;;2.92;;
63688;SDS011;54895;40.928;14.480;2023-06-14T09:59:04;3.55;;;3.20;;
63688;SDS011;54895;40.928;14.480;2023-06-14T10:01:32;3.80;;;2.95;;
63688;SDS011;54895;40.928;14.480;2023-06-14T10:04:04;6.55;;;3.40;;
63688;SDS011;54895;40.928;14.480;2023-06-14T10:06:31;5.28;;;2.75;;
63688;SDS011;54895;40.928;14.480;2023-06-14T10:09:02;4.40;;;2.63;;
63688;SDS011;54895;40.928;14.480;2023-06-14T10:11:30;4.93;;;2.63;;
63688;SDS011;54895;40.928;14.480;2023-06-14T10:20:21;3.70;;;2.70;;
63688;SDS011;54895;40.928;14.480;2023-06-14T10:22:58;2.78;;;2.10;;
63688;SDS011;54895;40.928;14.480;2023-06-14T10:25:29;4.75;;;2.53;;
63688;SDS011;54895;40.928;14.480;2023-06-14T10:30:38;4.47;;;2.20;;
63688;SDS011;54895;40.928;14.480;2023-06-14T10:33:05;4.43;;;2.30;;
63688;SDS011;54895;40.928;14.480;2023-06-14T10:35:33;4.40;;;2.60;;
63688;SDS011;54895;40.928;14.480;2023-06-14T10:38:11;4.68;;;2.55;;
63688;SDS011;54895;40.928;14.480;2023-06-14T10:40:38;4.22;;;2.53;;
63688;SDS011;54895;40.928;14.480;2023-06-14T10:43:20;3.33;;;2.17;;
63688;SDS011;54895;40.928;14.480;2023-06-14T10:48:43;5.10;;;2.42;;
63688;SDS011;54895;40.928;14.480;2023-06-14T10:51:19;3.47;;;2.63;;
63688;SDS011;54895;40.928;14.480;2023-06-14T10:53:47;5.70;;;2.78;;
63688;SDS011;54895;40.928;14.480;2023-06-14T10:59:14;3.95;;;2.42;;
63688;SDS011;54895;40.928;14.480;2023-06-14T11:01:45;5.78;;;2.75;;
63688;SDS011;54895;40.928;14.480;2023-06-14T11:04:18;3.63;;;2.53;;
63688;SDS011;54895;40.928;14.480;2023-06-14T11:06:47;3.03;;;2.30;;
63688;SDS011;54895;40.928;14.480;2023-06-14T11:11:41;3.38;;;2.42;;
63688;SDS011;54895;40.928;14.480;2023-06-14T11:17:32;3.88;;;2.33;;
63688;SDS011;54895;40.928;14.480;2023-06-14T11:20:12;5.45;;;2.70;;
63688;SDS011;54895;40.928;14.480;2023-06-14T11:22:42;4.43;;;2.25;;
63688;SDS011;54895;40.928;14.480;2023-06-14T11:25:11;4.80;;;2.80;;
63688;SDS011;54895;40.928;14.480;2023-06-14T11:27:38;3.75;;;2.67;;
63688;SDS011;54895;40.928;14.480;2023-06-14T11:30:07;5.22;;;2.83;;
63688;SDS011;54895;40.928;14.480;2023-06-14T11:32:38;6.13;;;3.00;;
63688;SDS011;54895;40.928;14.480;2023-06-14T11:35:05;5.63;;;2.38;;
63688;SDS011;54895;40.928;14.480;2023-06-14T11:37:32;3.80;;;2.40;;
63688;SDS011;54895;40.928;14.480;2023-06-14T11:40:00;3.83;;;2.10;;
63688;SDS011;54895;40.928;14.480;2023-06-14T11:42:28;3.50;;;2.40;;
63688;SDS011;54895;40.928;14.480;2023-06-14T11:44:56;6.38;;;2.63;;
63688;SDS011;54895;40.928;14.480;2023-06-14T11:47:23;5.13;;;2.90;;
63688;SDS011;54895;40.928;14.480;2023-06-14T11:49:50;2.90;;;2.28;;
63688;SDS011;54895;40.928;14.480;2023-06-14T11:52:18;4.75;;;2.45;;
63688;SDS011;54895;40.928;14.480;2023-06-14T11:54:47;3.10;;;2.42;;
63688;SDS011;54895;40.928;14.480;2023-06-14T11:57:14;5.22;;;2.50;;
63688;SDS011;54895;40.928;14.480;2023-06-14T11:59:44;5.45;;;2.80;;
63688;SDS011;54895;40.928;14.480;2023-06-14T12:02:18;6.68;;;2.80;;
63688;SDS011;54895;40.928;14.480;2023-06-14T12:04:48;4.65;;;2.30;;
63688;SDS011;54895;40.928;14.480;2023-06-14T12:07:16;4.00;;;2.30;;
63688;SDS011;54895;40.928;14.480;2023-06-14T12:12:25;4.65;;;2.28;;
63688;SDS011;54895;40.928;14.480;2023-06-14T12:17:48;4.80;;;2.30;;
63688;SDS011;54895;40.928;14.480;2023-06-14T12:20:16;4.15;;;2.60;;
63688;SDS011;54895;40.928;14.480;2023-06-14T12:25:35;4.05;;;2.08;;
63688;SDS011;54895;40.928;14.480;2023-06-14T12:28:06;3.17;;;2.20;;
63688;SDS011;54895;40.928;14.480;2023-06-14T12:30:36;7.75;;;2.30;;
63688;SDS011;54895;40.928;14.480;2023-06-14T12:33:03;6.78;;;2.58;;
63688;SDS011;54895;40.928;14.480;2023-06-14T12:35:30;2.35;;;1.90;;
63688;SDS011;54895;40.928;14.480;2023-06-14T12:37:57;5.00;;;2.40;;
63688;SDS011;54895;40.928;14.480;2023-06-14T12:40:23;3.45;;;2.30;;
63688;SDS011;54895;40.928;14.480;2023-06-14T12:42:50;4.43;;;2.30;;
63688;SDS011;54895;40.928;14.480;2023-06-14T12:45:16;3.42;;;2.22;;
63688;SDS011;54895;40.928;14.480;2023-06-14T12:47:43;3.83;;;2.17;;
63688;SDS011;54895;40.928;14.480;2023-06-14T12:50:10;3.45;;;2.22;;
63688;SDS011;54895;40.928;14.480;2023-06-14T12:52:37;4.22;;;2.20;;
63688;SDS011;54895;40.928;14.480;2023-06-14T12:55:03;5.15;;;2.55;;
63688;SDS011;54895;40.928;14.480;2023-06-14T12:57:31;2.92;;;1.98;;
63688;SDS011;54895;40.928;14.480;2023-06-14T12:59:59;3.40;;;2.10;;
63688;SDS011;54895;40.928;14.480;2023-06-14T13:02:26;4.32;;;2.25;;
63688;SDS011;54895;40.928;14.480;2023-06-14T13:04:55;3.83;;;2.40;;
63688;SDS011;54895;40.928;14.480;2023-06-14T13:07:24;5.50;;;3.08;;
63688;SDS011;54895;40.928;14.480;2023-06-14T13:09:51;4.65;;;2.80;;
63688;SDS011;54895;40.928;14.480;2023-06-14T13:12:18;5.32;;;2.22;;
63688;SDS011;54895;40.928;14.480;2023-06-14T13:14:45;2.40;;;2.20;;
63688;SDS011;54895;40.928;14.480;2023-06-14T13:17:12;3.47;;;2.60;;
63688;SDS011;54895;40.928;14.480;2023-06-14T13:19:39;3.17;;;2.30;;
63688;SDS011;54895;40.928;14.480;2023-06-14T13:22:06;6.78;;;2.65;;
63688;SDS011;54895;40.928;14.480;2023-06-14T13:24:33;3.13;;;2.20;;
63688;SDS011;54895;40.928;14.480;2023-06-14T13:27:00;2.78;;;2.13;;
63688;SDS011;54895;40.928;14.480;2023-06-14T13:29:27;4.95;;;2.25;;
63688;SDS011;54895;40.928;14.480;2023-06-14T13:31:54;4.65;;;2.22;;
63688;SDS011;54895;40.928;14.480;2023-06-14T13:34:22;3.78;;;2.35;;
63688;SDS011;54895;40.928;14.480;2023-06-14T13:36:49;3.72;;;2.17;;
63688;SDS011;54895;40.928;14.480;2023-06-14T13:39:16;4.72;;;1.80;;
63688;SDS011;54895;40.928;14.480;2023-06-14T13:41:42;3.60;;;1.80;;
63688;SDS011;54895;40.928;14.480;2023-06-14T13:44:09;2.05;;;1.70;;
63688;SDS011;54895;40.928;14.480;2023-06-14T13:46:40;2.78;;;2.10;;
63688;SDS011;54895;40.928;14.480;2023-06-14T13:49:09;3.90;;;2.20;;
63688;SDS011;54895;40.928;14.480;2023-06-14T13:51:36;2.95;;;2.10;;
63688;SDS011;54895;40.928;14.480;2023-06-14T13:54:02;3.25;;;2.00;;
63688;SDS011;54895;40.928;14.480;2023-06-14T13:56:29;3.58;;;2.03;;
63688;SDS011;54895;40.928;14.480;2023-06-14T13:58:55;6.32;;;2.10;;
63688;SDS011;54895;40.928;14.480;2023-06-14T14:01:22;2.40;;;1.90;;
63688;SDS011;54895;40.928;14.480;2023-06-14T14:03:48;3.63;;;1.80;;
63688;SDS011;54895;40.928;14.480;2023-06-14T14:06:15;7.45;;;2.17;;
63688;SDS011;54895;40.928;14.480;2023-06-14T14:08:42;3.22;;;1.90;;
63688;SDS011;54895;40.928;14.480;2023-06-14T14:11:08;3.15;;;1.88;;
63688;SDS011;54895;40.928;14.480;2023-06-14T14:17:47;5.35;;;2.30;;
63688;SDS011;54895;40.928;14.480;2023-06-14T14:20:14;3.33;;;1.88;;
63688;SDS011;54895;40.928;14.480;2023-06-14T14:22:42;3.88;;;2.20;;
63688;SDS011;54895;40.928;14.480;2023-06-14T14:25:09;5.55;;;2.20;;
63688;SDS011;54895;40.928;14.480;2023-06-14T14:27:36;3.70;;;2.00;;
63688;SDS011;54895;40.928;14.480;2023-06-14T14:30:03;5.90;;;2.10;;
63688;SDS011;54895;40.928;14.480;2023-06-14T14:32:31;4.85;;;2.08;;
63688;SDS011;54895;40.928;14.480;2023-06-14T14:34:58;5.47;;;1.92;;
63688;SDS011;54895;40.928;14.480;2023-06-14T14:37:24;4.88;;;1.98;;
63688;SDS011;54895;40.928;14.480;2023-06-14T14:39:51;6.00;;;2.40;;
63688;SDS011;54895;40.928;14.480;2023-06-14T14:42:17;4.03;;;1.80;;
63688;SDS011;54895;40.928;14.480;2023-06-14T14:44:44;5.18;;;1.92;;
63688;SDS011;54895;40.928;14.480;2023-06-14T14:47:10;4.43;;;2.00;;
63688;SDS011;54895;40.928;14.480;2023-06-14T14:49:37;3.35;;;2.00;;
63688;SDS011;54895;40.928;14.480;2023-06-14T14:52:03;5.18;;;2.08;;
63688;SDS011;54895;40.928;14.480;2023-06-14T14:54:30;2.58;;;1.85;;
63688;SDS011;54895;40.928;14.480;2023-06-14T14:56:57;3.80;;;2.05;;
63688;SDS011;54895;40.928;14.480;2023-06-14T14:59:23;7.32;;;2.00;;
63688;SDS011;54895;40.928;14.480;2023-06-14T15:01:50;5.90;;;2.30;;
63688;SDS011;54895;40.928;14.480;2023-06-14T15:04:16;4.70;;;2.40;;
63688;SDS011;54895;40.928;14.480;2023-06-14T15:06:43;3.35;;;2.40;;
63688;SDS011;54895;40.928;14.480;2023-06-14T15:09:10;2.45;;;2.20;;
63688;SDS011;54895;40.928;14.480;2023-06-14T15:11:36;4.03;;;2.40;;
63688;SDS011;54895;40.928;14.480;2023-06-14T15:17:47;4.82;;;2.10;;
63688;SDS011;54895;40.928;14.480;2023-06-14T15:20:14;3.33;;;2.10;;
63688;SDS011;54895;40.928;14.480;2023-06-14T15:22:40;2.58;;;2.00;;
63688;SDS011;54895;40.928;14.480;2023-06-14T15:25:07;4.10;;;2.58;;
63688;SDS011;54895;40.928;14.480;2023-06-14T15:27:34;4.53;;;2.33;;
63688;SDS011;54895;40.928;14.480;2023-06-14T15:30:00;5.15;;;2.83;;
63688;SDS011;54895;40.928;14.480;2023-06-14T15:32:26;4.45;;;2.05;;